sensor_id;sensor_type;location;lat;lon;timestamp;temperature;humidity
31046;DHT22;17711;54.018;9.300;2022-07-29T00:02:28;12.80;99.90
31046;DHT22;17711;54.018;9.300;2022-07-29T00:04:57;12.80;99.90
31046;DHT22;17711;54.018;9.300;2022-07-29T00:07:25;12.90;99.90
31046;DHT22;17711;54.018;9.300;2022-07-29T00:09:54;12.80;99.90
31046;DHT22;17711;54.018;9.300;2022-07-29T00:12:25;12.70;99.90
31046;DHT22;17711;54.018;9.300;2022-07-29T00:14:57;12.60;99.90
31046;DHT22;17711;54.018;9.300;2022-07-29T00:17:26;12.60;99.90
31046;DHT22;17711;54.018;9.300;2022-07-29T00:19:55;12.50;99.90
31046;DHT22;17711;54.018;9.300;2022-07-29T00:22:23;12.60;99.90
31046;DHT22;17711;54.018;9.300;2022-07-29T00:24:52;12.50;99.90
31046;DHT22;17711;54.018;9.300;2022-07-29T00:27:21;12.40;99.90
31046;DHT22;17711;54.018;9.300;2022-07-29T00:29:50;12.40;99.90
31046;DHT22;17711;54.018;9.300;2022-07-29T00:32:20;12.30;99.90
31046;DHT22;17711;54.018;9.300;2022-07-29T00:34:48;12.30;99.90
31046;DHT22;17711;54.018;9.300;2022-07-29T00:37:35;12.20;99.90
31046;DHT22;17711;54.018;9.300;2022-07-29T00:40:07;12.10;99.90
31046;DHT22;17711;54.018;9.300;2022-07-29T00:42:42;12.00;99.90
31046;DHT22;17711;54.018;9.300;2022-07-29T00:45:11;12.00;99.90
31046;DHT22;17711;54.018;9.300;2022-07-29T00:47:41;11.90;99.90
31046;DHT22;17711;54.018;9.300;2022-07-29T00:50:11;11.90;99.90
31046;DHT22;17711;54.018;9.300;2022-07-29T00:52:41;11.90;99.90
31046;DHT22;17711;54.018;9.300;2022-07-29T00:55:13;11.80;99.90
31046;DHT22;17711;54.018;9.300;2022-07-29T00:57:42;11.80;99.90
31046;DHT22;17711;54.018;9.300;2022-07-29T01:00:14;11.80;99.90
31046;DHT22;17711;54.018;9.300;2022-07-29T01:02:45;11.70;99.90
31046;DHT22;17711;54.018;9.300;2022-07-29T01:05:17;11.60;99.90
31046;DHT22;17711;54.018;9.300;2022-07-29T01:07:47;11.60;99.90
31046;DHT22;17711;54.018;9.300;2022-07-29T01:10:18;11.60;99.90
31046;DHT22;17711;54.018;9.300;2022-07-29T01:12:49;11.50;99.90
31046;DHT22;17711;54.018;9.300;2022-07-29T01:15:19;11.40;99.90
31046;DHT22;17711;54.018;9.300;2022-07-29T01:18:05;11.40;99.90
31046;DHT22;17711;54.018;9.300;2022-07-29T01:20:58;11.40;99.90
31046;DHT22;17711;54.018;9.300;2022-07-29T01:23:58;11.20;99.90
31046;DHT22;17711;54.018;9.300;2022-07-29T01:26:41;11.20;99.90
31046;DHT22;17711;54.018;9.300;2022-07-29T01:29:21;11.20;99.90
31046;DHT22;17711;54.018;9.300;2022-07-29T01:32:07;11.20;99.90
31046;DHT22;17711;54.018;9.300;2022-07-29T01:34:58;11.20;99.90
31046;DHT22;17711;54.018;9.300;2022-07-29T01:37:33;11.10;99.90
31046;DHT22;17711;54.018;9.300;2022-07-29T01:40:11;11.10;99.90
31046;DHT22;17711;54.018;9.300;2022-07-29T01:42:43;11.20;99.90
31046;DHT22;17711;54.018;9.300;2022-07-29T01:45:17;11.20;99.90
31046;DHT22;17711;54.018;9.300;2022-07-29T01:47:51;11.30;99.90
31046;DHT22;17711;54.018;9.300;2022-07-29T01:50:28;11.50;99.90
31046;DHT22;17711;54.018;9.300;2022-07-29T01:53:00;11.50;99.90
31046;DHT22;17711;54.018;9.300;2022-07-29T01:55:34;11.50;99.90
31046;DHT22;17711;54.018;9.300;2022-07-29T01:58:03;11.50;99.90
31046;DHT22;17711;54.018;9.300;2022-07-29T02:00:34;11.60;99.90
31046;DHT22;17711;54.018;9.300;2022-07-29T02:03:07;11.60;99.90
31046;DHT22;17711;54.018;9.300;2022-07-29T02:05:39;11.60;99.90
31046;DHT22;17711;54.018;9.300;2022-07-29T02:08:09;11.60;99.90
31046;DHT22;17711;54.018;9.300;2022-07-29T02:10:40;11.50;99.90
31046;DHT22;17711;54.018;9.300;2022-07-29T02:13:11;11.40;99.90
31046;DHT22;17711;54.018;9.300;2022-07-29T02:15:42;11.50;99.90
31046;DHT22;17711;54.018;9.300;2022-07-29T02:18:15;11.50;99.90
31046;DHT22;17711;54.018;9.300;2022-07-29T02:20:47;11.50;99.90
31046;DHT22;17711;54.018;9.300;2022-07-29T02:23:19;11.40;99.90
31046;DHT22;17711;54.018;9.300;2022-07-29T02:25:49;11.20;99.90
31046;DHT22;17711;54.018;9.300;2022-07-29T02:28:19;11.10;99.90
31046;DHT22;17711;54.018;9.300;2022-07-29T02:30:52;11.00;99.90
31046;DHT22;17711;54.018;9.300;2022-07-29T02:33:21;10.90;99.90
31046;DHT22;17711;54.018;9.300;2022-07-29T02:35:52;10.90;99.90
31046;DHT22;17711;54.018;9.300;2022-07-29T02:38:22;10.80;99.90
31046;DHT22;17711;54.018;9.300;2022-07-29T02:41:11;10.80;99.90
31046;DHT22;17711;54.018;9.300;2022-07-29T02:43:41;10.80;99.90
31046;DHT22;17711;54.018;9.300;2022-07-29T02:46:14;10.80;99.90
31046;DHT22;17711;54.018;9.300;2022-07-29T02:48:59;10.80;99.90
31046;DHT22;17711;54.018;9.300;2022-07-29T02:51:36;10.70;99.90
31046;DHT22;17711;54.018;9.300;2022-07-29T02:54:19;10.70;99.90
31046;DHT22;17711;54.018;9.300;2022-07-29T02:56:49;10.70;99.90
31046;DHT22;17711;54.018;9.300;2022-07-29T02:59:26;10.70;99.90
31046;DHT22;17711;54.018;9.300;2022-07-29T03:01:58;10.70;99.90
31046;DHT22;17711;54.018;9.300;2022-07-29T03:04:31;10.70;99.90
31046;DHT22;17711;54.018;9.300;2022-07-29T03:07:02;10.70;99.90
31046;DHT22;17711;54.018;9.300;2022-07-29T03:09:32;10.70;99.90
31046;DHT22;17711;54.018;9.300;2022-07-29T03:12:03;10.70;99.90
31046;DHT22;17711;54.018;9.300;2022-07-29T03:14:32;10.70;99.90
31046;DHT22;17711;54.018;9.300;2022-07-29T03:17:02;10.80;99.90
31046;DHT22;17711;54.018;9.300;2022-07-29T03:19:31;10.80;99.90
31046;DHT22;17711;54.018;9.300;2022-07-29T03:22:00;10.80;99.90
31046;DHT22;17711;54.018;9.300;2022-07-29T03:24:34;10.80;99.90
31046;DHT22;17711;54.018;9.300;2022-07-29T03:27:04;10.90;99.90
31046;DHT22;17711;54.018;9.300;2022-07-29T03:29:33;11.00;99.90
31046;DHT22;17711;54.018;9.300;2022-07-29T03:32:05;11.10;99.90
31046;DHT22;17711;54.018;9.300;2022-07-29T03:34:36;11.10;99.90
31046;DHT22;17711;54.018;9.300;2022-07-29T03:37:06;11.00;99.90
31046;DHT22;17711;54.018;9.300;2022-07-29T03:39:38;11.10;99.90
31046;DHT22;17711;54.018;9.300;2022-07-29T03:42:11;11.20;99.90
31046;DHT22;17711;54.018;9.300;2022-07-29T03:44:41;11.30;99.90
31046;DHT22;17711;54.018;9.300;2022-07-29T03:47:13;11.40;99.90
31046;DHT22;17711;54.018;9.300;2022-07-29T03:49:44;11.30;99.90
31046;DHT22;17711;54.018;9.300;2022-07-29T03:52:13;11.20;99.90
31046;DHT22;17711;54.018;9.300;2022-07-29T03:54:42;11.20;99.90
31046;DHT22;17711;54.018;9.300;2022-07-29T03:57:12;11.20;99.90
31046;DHT22;17711;54.018;9.300;2022-07-29T03:59:41;11.20;99.90
31046;DHT22;17711;54.018;9.300;2022-07-29T04:02:13;11.30;99.90
31046;DHT22;17711;54.018;9.300;2022-07-29T04:04:49;11.30;99.90
31046;DHT22;17711;54.018;9.300;2022-07-29T04:07:19;11.40;99.90
31046;DHT22;17711;54.018;9.300;2022-07-29T04:09:47;11.50;99.90
31046;DHT22;17711;54.018;9.300;2022-07-29T04:12:16;11.60;99.90
31046;DHT22;17711;54.018;9.300;2022-07-29T04:14:45;11.60;99.90
31046;DHT22;17711;54.018;9.300;2022-07-29T04:17:15;11.70;99.90
31046;DHT22;17711;54.018;9.300;2022-07-29T04:19:44;11.70;99.90
31046;DHT22;17711;54.018;9.300;2022-07-29T04:22:12;11.70;99.90
31046;DHT22;17711;54.018;9.300;2022-07-29T04:24:41;11.80;99.90
31046;DHT22;17711;54.018;9.300;2022-07-29T04:27:10;11.80;99.90
31046;DHT22;17711;54.018;9.300;2022-07-29T04:29:39;11.90;99.90
31046;DHT22;17711;54.018;9.300;2022-07-29T04:32:25;12.00;99.90
31046;DHT22;17711;54.018;9.300;2022-07-29T04:34:57;12.20;99.90
31046;DHT22;17711;54.018;9.300;2022-07-29T04:37:26;12.30;99.90
31046;DHT22;17711;54.018;9.300;2022-07-29T04:39:54;12.40;99.90
31046;DHT22;17711;54.018;9.300;2022-07-29T04:42:23;12.50;99.90
31046;DHT22;17711;54.018;9.300;2022-07-29T04:44:53;12.60;99.90
31046;DHT22;17711;54.018;9.300;2022-07-29T04:47:23;12.70;99.90
31046;DHT22;17711;54.018;9.300;2022-07-29T04:49:52;12.90;99.90
31046;DHT22;17711;54.018;9.300;2022-07-29T04:52:21;13.00;99.90
31046;DHT22;17711;54.018;9.300;2022-07-29T04:54:49;13.10;99.90
31046;DHT22;17711;54.018;9.300;2022-07-29T04:57:18;13.30;99.90
31046;DHT22;17711;54.018;9.300;2022-07-29T04:59:47;13.40;99.90
31046;DHT22;17711;54.018;9.300;2022-07-29T05:02:15;13.60;99.90
31046;DHT22;17711;54.018;9.300;2022-07-29T05:04:45;13.80;99.90
31046;DHT22;17711;54.018;9.300;2022-07-29T05:07:14;13.90;99.90
31046;DHT22;17711;54.018;9.300;2022-07-29T05:09:43;14.10;99.90
31046;DHT22;17711;54.018;9.300;2022-07-29T05:12:11;14.20;99.90
31046;DHT22;17711;54.018;9.300;2022-07-29T05:14:40;14.30;99.90
31046;DHT22;17711;54.018;9.300;2022-07-29T05:17:09;14.40;99.90
31046;DHT22;17711;54.018;9.300;2022-07-29T05:19:38;14.50;99.90
31046;DHT22;17711;54.018;9.300;2022-07-29T05:22:08;14.60;99.90
31046;DHT22;17711;54.018;9.300;2022-07-29T05:24:36;14.70;99.90
31046;DHT22;17711;54.018;9.300;2022-07-29T05:27:05;14.80;99.90
31046;DHT22;17711;54.018;9.300;2022-07-29T05:29:34;14.90;99.90
31046;DHT22;17711;54.018;9.300;2022-07-29T05:32:11;15.00;99.90
31046;DHT22;17711;54.018;9.300;2022-07-29T05:34:41;15.20;99.90
31046;DHT22;17711;54.018;9.300;2022-07-29T05:37:18;15.20;99.90
31046;DHT22;17711;54.018;9.300;2022-07-29T05:39:46;15.20;99.90
31046;DHT22;17711;54.018;9.300;2022-07-29T05:42:23;15.30;99.90
31046;DHT22;17711;54.018;9.300;2022-07-29T05:44:52;15.40;99.90
31046;DHT22;17711;54.018;9.300;2022-07-29T05:47:21;15.50;99.90
31046;DHT22;17711;54.018;9.300;2022-07-29T05:49:50;15.60;99.90
31046;DHT22;17711;54.018;9.300;2022-07-29T05:52:20;15.70;99.90
31046;DHT22;17711;54.018;9.300;2022-07-29T05:54:49;15.70;99.90
31046;DHT22;17711;54.018;9.300;2022-07-29T05:57:19;15.80;99.90
31046;DHT22;17711;54.018;9.300;2022-07-29T05:59:48;16.00;99.90
31046;DHT22;17711;54.018;9.300;2022-07-29T06:02:18;16.10;99.90
31046;DHT22;17711;54.018;9.300;2022-07-29T06:04:46;16.20;99.90
31046;DHT22;17711;54.018;9.300;2022-07-29T06:07:16;16.20;99.90
31046;DHT22;17711;54.018;9.300;2022-07-29T06:09:46;16.40;99.90
31046;DHT22;17711;54.018;9.300;2022-07-29T06:12:15;16.50;99.90
31046;DHT22;17711;54.018;9.300;2022-07-29T06:14:43;16.70;99.90
31046;DHT22;17711;54.018;9.300;2022-07-29T06:17:16;16.80;99.90
31046;DHT22;17711;54.018;9.300;2022-07-29T06:19:45;16.90;99.90
31046;DHT22;17711;54.018;9.300;2022-07-29T06:22:15;17.10;99.90
31046;DHT22;17711;54.018;9.300;2022-07-29T06:24:45;17.20;99.90
31046;DHT22;17711;54.018;9.300;2022-07-29T06:27:14;17.30;99.90
31046;DHT22;17711;54.018;9.300;2022-07-29T06:29:43;17.40;99.90
31046;DHT22;17711;54.018;9.300;2022-07-29T06:32:12;17.60;99.90
31046;DHT22;17711;54.018;9.300;2022-07-29T06:34:41;17.80;99.90
31046;DHT22;17711;54.018;9.300;2022-07-29T06:37:14;17.90;99.90
31046;DHT22;17711;54.018;9.300;2022-07-29T06:39:46;18.10;99.90
31046;DHT22;17711;54.018;9.300;2022-07-29T06:42:15;18.30;99.90
31046;DHT22;17711;54.018;9.300;2022-07-29T06:44:43;18.40;99.90
31046;DHT22;17711;54.018;9.300;2022-07-29T06:47:12;18.50;99.90
31046;DHT22;17711;54.018;9.300;2022-07-29T06:49:41;18.60;99.90
31046;DHT22;17711;54.018;9.300;2022-07-29T06:52:09;18.70;99.90
31046;DHT22;17711;54.018;9.300;2022-07-29T06:54:38;18.80;99.90
31046;DHT22;17711;54.018;9.300;2022-07-29T06:57:16;18.80;99.90
31046;DHT22;17711;54.018;9.300;2022-07-29T06:59:47;18.90;99.90
31046;DHT22;17711;54.018;9.300;2022-07-29T07:02:16;19.00;99.90
31046;DHT22;17711;54.018;9.300;2022-07-29T07:04:45;19.10;99.90
31046;DHT22;17711;54.018;9.300;2022-07-29T07:07:15;19.20;99.90
31046;DHT22;17711;54.018;9.300;2022-07-29T07:09:44;19.30;99.90
31046;DHT22;17711;54.018;9.300;2022-07-29T07:12:12;19.40;99.90
31046;DHT22;17711;54.018;9.300;2022-07-29T07:14:42;19.40;99.90
31046;DHT22;17711;54.018;9.300;2022-07-29T07:17:12;19.50;99.90
31046;DHT22;17711;54.018;9.300;2022-07-29T07:19:41;19.70;99.90
31046;DHT22;17711;54.018;9.300;2022-07-29T07:22:10;19.80;99.90
31046;DHT22;17711;54.018;9.300;2022-07-29T07:24:38;19.90;99.90
31046;DHT22;17711;54.018;9.300;2022-07-29T07:27:07;20.10;99.90
31046;DHT22;17711;54.018;9.300;2022-07-29T07:29:36;20.30;99.90
31046;DHT22;17711;54.018;9.300;2022-07-29T07:32:11;20.50;99.90
31046;DHT22;17711;54.018;9.300;2022-07-29T07:34:43;20.60;99.90
31046;DHT22;17711;54.018;9.300;2022-07-29T07:37:12;20.80;99.90
31046;DHT22;17711;54.018;9.300;2022-07-29T07:39:41;21.00;99.90
31046;DHT22;17711;54.018;9.300;2022-07-29T07:42:10;21.20;99.90
31046;DHT22;17711;54.018;9.300;2022-07-29T07:44:39;21.20;99.90
31046;DHT22;17711;54.018;9.300;2022-07-29T07:47:30;21.30;99.90
31046;DHT22;17711;54.018;9.300;2022-07-29T07:50:00;21.50;99.90
31046;DHT22;17711;54.018;9.300;2022-07-29T07:52:28;21.70;99.90
31046;DHT22;17711;54.018;9.300;2022-07-29T07:54:57;22.00;99.90
31046;DHT22;17711;54.018;9.300;2022-07-29T07:57:26;22.30;99.90
31046;DHT22;17711;54.018;9.300;2022-07-29T07:59:54;22.30;99.90
31046;DHT22;17711;54.018;9.300;2022-07-29T08:02:23;22.30;99.90
31046;DHT22;17711;54.018;9.300;2022-07-29T08:04:54;22.40;99.90
31046;DHT22;17711;54.018;9.300;2022-07-29T08:07:22;22.40;99.90
31046;DHT22;17711;54.018;9.300;2022-07-29T08:09:51;22.40;99.90
31046;DHT22;17711;54.018;9.300;2022-07-29T08:12:20;22.30;99.90
31046;DHT22;17711;54.018;9.300;2022-07-29T08:14:48;22.30;99.90
31046;DHT22;17711;54.018;9.300;2022-07-29T08:17:20;22.30;99.90
31046;DHT22;17711;54.018;9.300;2022-07-29T08:19:48;22.50;99.90
31046;DHT22;17711;54.018;9.300;2022-07-29T08:22:19;23.10;99.90
31046;DHT22;17711;54.018;9.300;2022-07-29T08:24:47;23.60;99.90
31046;DHT22;17711;54.018;9.300;2022-07-29T08:27:22;24.00;99.90
31046;DHT22;17711;54.018;9.300;2022-07-29T08:30:11;24.40;96.70
31046;DHT22;17711;54.018;9.300;2022-07-29T08:32:40;24.80;93.50
31046;DHT22;17711;54.018;9.300;2022-07-29T08:35:24;25.20;91.00
31046;DHT22;17711;54.018;9.300;2022-07-29T08:37:59;25.60;86.70
31046;DHT22;17711;54.018;9.300;2022-07-29T08:40:28;25.60;79.90
31046;DHT22;17711;54.018;9.300;2022-07-29T08:42:59;25.40;81.00
31046;DHT22;17711;54.018;9.300;2022-07-29T08:45:28;24.90;76.50
31046;DHT22;17711;54.018;9.300;2022-07-29T08:47:58;24.50;78.60
31046;DHT22;17711;54.018;9.300;2022-07-29T08:50:27;24.20;83.80
31046;DHT22;17711;54.018;9.300;2022-07-29T08:52:56;24.00;87.40
31046;DHT22;17711;54.018;9.300;2022-07-29T08:55:27;24.00;92.30
31046;DHT22;17711;54.018;9.300;2022-07-29T08:57:56;24.00;90.80
31046;DHT22;17711;54.018;9.300;2022-07-29T09:00:26;23.80;88.40
31046;DHT22;17711;54.018;9.300;2022-07-29T09:02:57;23.60;91.60
31046;DHT22;17711;54.018;9.300;2022-07-29T09:05:26;23.40;90.80
31046;DHT22;17711;54.018;9.300;2022-07-29T09:07:55;23.20;95.60
31046;DHT22;17711;54.018;9.300;2022-07-29T09:10:24;23.00;97.70
31046;DHT22;17711;54.018;9.300;2022-07-29T09:12:55;23.00;99.90
31046;DHT22;17711;54.018;9.300;2022-07-29T09:15:24;23.00;98.40
31046;DHT22;17711;54.018;9.300;2022-07-29T09:17:53;23.00;99.90
31046;DHT22;17711;54.018;9.300;2022-07-29T09:20:22;23.10;99.90
31046;DHT22;17711;54.018;9.300;2022-07-29T09:22:52;23.20;99.30
31046;DHT22;17711;54.018;9.300;2022-07-29T09:25:34;23.40;98.30
31046;DHT22;17711;54.018;9.300;2022-07-29T09:28:08;23.90;99.90
31046;DHT22;17711;54.018;9.300;2022-07-29T09:30:50;24.30;97.30
31046;DHT22;17711;54.018;9.300;2022-07-29T09:33:20;24.70;94.90
31046;DHT22;17711;54.018;9.300;2022-07-29T09:35:59;25.30;97.60
31046;DHT22;17711;54.018;9.300;2022-07-29T09:38:30;25.80;83.00
31046;DHT22;17711;54.018;9.300;2022-07-29T09:41:00;25.90;78.40
31046;DHT22;17711;54.018;9.300;2022-07-29T09:43:34;25.90;81.20
31046;DHT22;17711;54.018;9.300;2022-07-29T09:46:10;26.00;78.60
31046;DHT22;17711;54.018;9.300;2022-07-29T09:48:40;26.00;80.40
31046;DHT22;17711;54.018;9.300;2022-07-29T09:51:17;26.00;79.00
31046;DHT22;17711;54.018;9.300;2022-07-29T09:53:55;26.00;71.90
31046;DHT22;17711;54.018;9.300;2022-07-29T09:56:39;26.00;74.00
31046;DHT22;17711;54.018;9.300;2022-07-29T09:59:09;25.90;74.10
31046;DHT22;17711;54.018;9.300;2022-07-29T10:01:38;25.70;75.80
31046;DHT22;17711;54.018;9.300;2022-07-29T10:04:07;25.60;80.80
31046;DHT22;17711;54.018;9.300;2022-07-29T10:06:36;25.40;79.50
31046;DHT22;17711;54.018;9.300;2022-07-29T10:09:31;25.00;79.60
31046;DHT22;17711;54.018;9.300;2022-07-29T10:12:05;24.90;83.90
31046;DHT22;17711;54.018;9.300;2022-07-29T10:14:37;24.80;87.60
31046;DHT22;17711;54.018;9.300;2022-07-29T10:17:08;24.70;82.30
31046;DHT22;17711;54.018;9.300;2022-07-29T10:19:37;24.90;84.50
31046;DHT22;17711;54.018;9.300;2022-07-29T10:22:07;25.00;84.00
31046;DHT22;17711;54.018;9.300;2022-07-29T10:24:38;25.20;79.80
31046;DHT22;17711;54.018;9.300;2022-07-29T10:27:08;25.50;83.90
31046;DHT22;17711;54.018;9.300;2022-07-29T10:29:38;25.90;71.40
31046;DHT22;17711;54.018;9.300;2022-07-29T10:38:21;26.20;71.00
31046;DHT22;17711;54.018;9.300;2022-07-29T10:41:01;26.30;73.30
31046;DHT22;17711;54.018;9.300;2022-07-29T10:43:53;26.40;71.20
31046;DHT22;17711;54.018;9.300;2022-07-29T10:46:24;26.40;69.60
31046;DHT22;17711;54.018;9.300;2022-07-29T10:49:09;26.40;67.70
31046;DHT22;17711;54.018;9.300;2022-07-29T10:51:55;26.50;69.60
31046;DHT22;17711;54.018;9.300;2022-07-29T10:54:45;26.40;67.70
31046;DHT22;17711;54.018;9.300;2022-07-29T10:57:16;26.40;69.90
31046;DHT22;17711;54.018;9.300;2022-07-29T10:59:47;26.20;70.10
31046;DHT22;17711;54.018;9.300;2022-07-29T11:02:42;26.10;73.30
31046;DHT22;17711;54.018;9.300;2022-07-29T11:05:13;25.90;67.50
31046;DHT22;17711;54.018;9.300;2022-07-29T11:08:22;25.90;69.80
31046;DHT22;17711;54.018;9.300;2022-07-29T11:14:54;26.40;78.30
31046;DHT22;17711;54.018;9.300;2022-07-29T11:17:24;26.90;69.30
31046;DHT22;17711;54.018;9.300;2022-07-29T11:20:32;27.10;69.00
31046;DHT22;17711;54.018;9.300;2022-07-29T11:23:18;27.00;64.90
31046;DHT22;17711;54.018;9.300;2022-07-29T11:26:16;26.90;63.80
31046;DHT22;17711;54.018;9.300;2022-07-29T11:28:57;26.90;66.00
31046;DHT22;17711;54.018;9.300;2022-07-29T11:31:37;26.70;64.40
31046;DHT22;17711;54.018;9.300;2022-07-29T11:34:23;26.60;65.10
31046;DHT22;17711;54.018;9.300;2022-07-29T11:37:21;26.50;70.20
31046;DHT22;17711;54.018;9.300;2022-07-29T11:40:21;26.40;71.00
31046;DHT22;17711;54.018;9.300;2022-07-29T11:42:51;26.40;71.00
31046;DHT22;17711;54.018;9.300;2022-07-29T11:45:23;26.50;70.70
31046;DHT22;17711;54.018;9.300;2022-07-29T11:48:20;26.90;66.40
31046;DHT22;17711;54.018;9.300;2022-07-29T11:50:58;27.00;63.10
31046;DHT22;17711;54.018;9.300;2022-07-29T11:53:30;27.00;63.10
31046;DHT22;17711;54.018;9.300;2022-07-29T11:56:00;27.30;64.70
31046;DHT22;17711;54.018;9.300;2022-07-29T11:58:30;27.20;62.10
31046;DHT22;17711;54.018;9.300;2022-07-29T12:01:00;27.30;61.70
31046;DHT22;17711;54.018;9.300;2022-07-29T12:03:31;27.40;67.30
31046;DHT22;17711;54.018;9.300;2022-07-29T12:06:04;27.50;64.80
31046;DHT22;17711;54.018;9.300;2022-07-29T12:08:42;27.90;60.60
31046;DHT22;17711;54.018;9.300;2022-07-29T12:11:19;28.10;66.00
31046;DHT22;17711;54.018;9.300;2022-07-29T12:13:50;28.20;63.60
31046;DHT22;17711;54.018;9.300;2022-07-29T12:16:19;29.30;59.90
31046;DHT22;17711;54.018;9.300;2022-07-29T12:18:57;30.50;54.00
31046;DHT22;17711;54.018;9.300;2022-07-29T12:21:25;30.50;55.10
31046;DHT22;17711;54.018;9.300;2022-07-29T12:23:57;30.10;53.10
31046;DHT22;17711;54.018;9.300;2022-07-29T12:26:36;29.70;53.00
31046;DHT22;17711;54.018;9.300;2022-07-29T12:29:23;29.20;52.60
31046;DHT22;17711;54.018;9.300;2022-07-29T12:32:02;29.10;50.30
31046;DHT22;17711;54.018;9.300;2022-07-29T12:34:46;29.20;51.90
31046;DHT22;17711;54.018;9.300;2022-07-29T12:37:14;29.80;55.10
31046;DHT22;17711;54.018;9.300;2022-07-29T12:39:45;30.80;54.50
31046;DHT22;17711;54.018;9.300;2022-07-29T12:42:14;32.30;51.90
31046;DHT22;17711;54.018;9.300;2022-07-29T12:44:46;33.70;47.60
31046;DHT22;17711;54.018;9.300;2022-07-29T12:47:16;34.30;44.00
31046;DHT22;17711;54.018;9.300;2022-07-29T12:49:48;35.10;45.00
31046;DHT22;17711;54.018;9.300;2022-07-29T12:52:25;35.60;40.40
31046;DHT22;17711;54.018;9.300;2022-07-29T12:54:57;36.00;37.60
31046;DHT22;17711;54.018;9.300;2022-07-29T12:57:26;36.20;35.20
31046;DHT22;17711;54.018;9.300;2022-07-29T13:00:06;35.70;36.20
31046;DHT22;17711;54.018;9.300;2022-07-29T13:02:37;35.10;36.60
31046;DHT22;17711;54.018;9.300;2022-07-29T13:05:06;34.30;37.10
31046;DHT22;17711;54.018;9.300;2022-07-29T13:07:36;33.60;36.00
31046;DHT22;17711;54.018;9.300;2022-07-29T13:10:23;33.60;38.60
31046;DHT22;17711;54.018;9.300;2022-07-29T13:13:07;33.30;39.40
31046;DHT22;17711;54.018;9.300;2022-07-29T13:15:37;33.60;44.70
31046;DHT22;17711;54.018;9.300;2022-07-29T13:18:26;34.00;39.50
31046;DHT22;17711;54.018;9.300;2022-07-29T13:20:55;34.00;38.40
31046;DHT22;17711;54.018;9.300;2022-07-29T13:23:24;33.70;36.50
31046;DHT22;17711;54.018;9.300;2022-07-29T13:25:54;34.10;40.50
31046;DHT22;17711;54.018;9.300;2022-07-29T13:28:23;34.50;39.40
31046;DHT22;17711;54.018;9.300;2022-07-29T13:30:52;35.20;38.00
31046;DHT22;17711;54.018;9.300;2022-07-29T13:33:24;35.30;36.60
31046;DHT22;17711;54.018;9.300;2022-07-29T13:35:52;35.30;35.20
31046;DHT22;17711;54.018;9.300;2022-07-29T13:38:21;34.60;34.80
31046;DHT22;17711;54.018;9.300;2022-07-29T13:40:58;34.90;34.50
31046;DHT22;17711;54.018;9.300;2022-07-29T13:43:27;34.70;36.10
31046;DHT22;17711;54.018;9.300;2022-07-29T13:45:56;35.00;35.40
31046;DHT22;17711;54.018;9.300;2022-07-29T13:48:25;35.40;33.20
31046;DHT22;17711;54.018;9.300;2022-07-29T13:50:53;36.00;35.30
31046;DHT22;17711;54.018;9.300;2022-07-29T13:53:22;36.50;35.00
31046;DHT22;17711;54.018;9.300;2022-07-29T13:55:53;36.40;33.40
31046;DHT22;17711;54.018;9.300;2022-07-29T13:58:23;36.20;31.90
31046;DHT22;17711;54.018;9.300;2022-07-29T14:00:52;36.20;32.00
31046;DHT22;17711;54.018;9.300;2022-07-29T14:03:21;36.70;31.20
31046;DHT22;17711;54.018;9.300;2022-07-29T14:05:50;37.00;31.60
31046;DHT22;17711;54.018;9.300;2022-07-29T14:08:18;37.00;29.80
31046;DHT22;17711;54.018;9.300;2022-07-29T14:10:47;37.20;29.50
31046;DHT22;17711;54.018;9.300;2022-07-29T14:13:17;36.90;32.90
31046;DHT22;17711;54.018;9.300;2022-07-29T14:15:53;36.50;32.00
31046;DHT22;17711;54.018;9.300;2022-07-29T14:18:21;35.80;33.30
31046;DHT22;17711;54.018;9.300;2022-07-29T14:20:50;34.90;31.20
31046;DHT22;17711;54.018;9.300;2022-07-29T14:23:19;34.10;35.00
31046;DHT22;17711;54.018;9.300;2022-07-29T14:25:48;33.50;37.30
31046;DHT22;17711;54.018;9.300;2022-07-29T14:28:17;33.20;34.80
31046;DHT22;17711;54.018;9.300;2022-07-29T14:30:46;32.80;34.50
31046;DHT22;17711;54.018;9.300;2022-07-29T14:33:16;32.50;35.80
31046;DHT22;17711;54.018;9.300;2022-07-29T14:35:45;32.30;36.10
31046;DHT22;17711;54.018;9.300;2022-07-29T14:38:14;32.50;36.50
31046;DHT22;17711;54.018;9.300;2022-07-29T14:40:42;32.70;36.10
31046;DHT22;17711;54.018;9.300;2022-07-29T14:43:16;32.70;36.20
31046;DHT22;17711;54.018;9.300;2022-07-29T14:45:47;33.00;35.50
31046;DHT22;17711;54.018;9.300;2022-07-29T14:48:17;32.90;37.10
31046;DHT22;17711;54.018;9.300;2022-07-29T14:50:46;32.60;38.40
31046;DHT22;17711;54.018;9.300;2022-07-29T14:53:15;32.50;37.60
31046;DHT22;17711;54.018;9.300;2022-07-29T14:55:44;32.30;36.70
31046;DHT22;17711;54.018;9.300;2022-07-29T14:58:12;32.10;39.10
31046;DHT22;17711;54.018;9.300;2022-07-29T15:00:42;32.10;39.30
31046;DHT22;17711;54.018;9.300;2022-07-29T15:03:12;31.80;41.70
31046;DHT22;17711;54.018;9.300;2022-07-29T15:05:51;31.40;42.10
31046;DHT22;17711;54.018;9.300;2022-07-29T15:08:20;31.00;39.00
31046;DHT22;17711;54.018;9.300;2022-07-29T15:10:50;30.80;40.20
31046;DHT22;17711;54.018;9.300;2022-07-29T15:13:18;30.60;43.10
31046;DHT22;17711;54.018;9.300;2022-07-29T15:15:47;30.50;42.70
31046;DHT22;17711;54.018;9.300;2022-07-29T15:18:17;30.50;42.10
31046;DHT22;17711;54.018;9.300;2022-07-29T15:20:53;30.60;42.00
31046;DHT22;17711;54.018;9.300;2022-07-29T15:23:25;30.50;42.60
31046;DHT22;17711;54.018;9.300;2022-07-29T15:25:53;30.60;43.70
31046;DHT22;17711;54.018;9.300;2022-07-29T15:28:22;30.70;43.90
31046;DHT22;17711;54.018;9.300;2022-07-29T15:30:50;30.80;42.00
31046;DHT22;17711;54.018;9.300;2022-07-29T15:33:20;30.50;42.40
31046;DHT22;17711;54.018;9.300;2022-07-29T15:35:49;29.90;44.20
31046;DHT22;17711;54.018;9.300;2022-07-29T15:38:19;29.50;45.80
31046;DHT22;17711;54.018;9.300;2022-07-29T15:40:55;29.10;45.50
31046;DHT22;17711;54.018;9.300;2022-07-29T15:43:24;28.70;46.20
31046;DHT22;17711;54.018;9.300;2022-07-29T15:45:52;28.40;48.10
31046;DHT22;17711;54.018;9.300;2022-07-29T15:48:39;28.10;47.50
31046;DHT22;17711;54.018;9.300;2022-07-29T15:51:08;27.90;49.20
31046;DHT22;17711;54.018;9.300;2022-07-29T15:53:38;27.80;51.10
31046;DHT22;17711;54.018;9.300;2022-07-29T15:56:07;27.70;52.70
31046;DHT22;17711;54.018;9.300;2022-07-29T15:58:35;27.60;52.70
31046;DHT22;17711;54.018;9.300;2022-07-29T16:01:04;27.40;52.10
31046;DHT22;17711;54.018;9.300;2022-07-29T16:03:33;27.20;52.20
31046;DHT22;17711;54.018;9.300;2022-07-29T16:06:02;27.00;52.40
31046;DHT22;17711;54.018;9.300;2022-07-29T16:08:31;26.80;55.70
31046;DHT22;17711;54.018;9.300;2022-07-29T16:11:01;26.70;54.70
31046;DHT22;17711;54.018;9.300;2022-07-29T16:13:30;26.60;56.60